This is the latest recevied weather packets stored in our database for station/object HB9HUT-13. If no packets are shown the sender has not sent any weather packets the latest 10 day(s).
| Time | Temp. | Humidity | Pressure | Rain* | Wind** | Luminosity | Snow |
|---|---|---|---|---|---|---|---|
| 1777998069 | 20.56° C | 39% | 839.3 hPa | - | - | - | - |
| 1777997166 | 21.11° C | 39% | 839.2 hPa | - | - | - | - |
| 1777996263 | 21.67° C | 39% | 839.1 hPa | - | - | - | - |
| 1777995360 | 22.22° C | 39% | 839 hPa | - | - | - | - |
| 1777995360 | 22.22° C | 39% | 839 hPa | - | - | - | - |
| 1777994457 | 23.33° C | 38% | 838.8 hPa | - | - | - | - |
| 1777993554 | 23.89° C | 38% | 838.9 hPa | - | - | - | - |
| 1777993554 | 23.89° C | 38% | 838.9 hPa | - | - | - | - |
| 1777992651 | 24.44° C | 38% | 838.8 hPa | - | - | - | - |
| 1777991748 | 24.44° C | 38% | 838.7 hPa | - | - | - | - |
| 1777991748 | 24.44° C | 38% | 838.7 hPa | - | - | - | - |
| 1777990845 | 24.44° C | 39% | 838.7 hPa | - | - | - | - |
| 1777989942 | 23.89° C | 39% | 838.7 hPa | - | - | - | - |
| 1777989942 | 23.89° C | 39% | 838.7 hPa | - | - | - | - |
| 1777989039 | 22.78° C | 39% | 838.7 hPa | - | - | - | - |
| 1777988136 | 22.22° C | 40% | 838.8 hPa | - | - | - | - |
| 1777988136 | 22.22° C | 40% | 838.8 hPa | - | - | - | - |
| 1777987233 | 21.11° C | 40% | 839 hPa | - | - | - | - |
| 1777986330 | 20° C | 38% | 839 hPa | - | - | - | - |
| 1777986330 | 20° C | 38% | 839 hPa | - | - | - | - |
| 1777985427 | 20° C | 37% | 839 hPa | - | - | - | - |
| 1777984524 | 20° C | 37% | 839 hPa | - | - | - | - |
| 1777983621 | 20° C | 38% | 839.1 hPa | - | - | - | - |
| 1777982718 | 19.44° C | 41% | 839.1 hPa | - | - | - | - |
| 1777980912 | 16.67° C | 41% | 839.2 hPa | - | - | - | - |
* Rain since midnight (hover to see other rain measurements)
** Current wind speed in m/s (hover to see current wind gust speed)